sensor_id;sensor_type;location;lat;lon;timestamp;P1;durP1;ratioP1;P2;durP2;ratioP2
11837;SDS011;5978;51.020;6.764;2022-07-23T00:01:31;22.47;;;16.80;;
11837;SDS011;5978;51.020;6.764;2022-07-23T00:03:57;23.53;;;19.07;;
11837;SDS011;5978;51.020;6.764;2022-07-23T00:06:23;25.20;;;18.07;;
11837;SDS011;5978;51.020;6.764;2022-07-23T00:08:49;28.53;;;20.00;;
11837;SDS011;5978;51.020;6.764;2022-07-23T00:11:15;28.40;;;22.40;;
11837;SDS011;5978;51.020;6.764;2022-07-23T00:13:41;26.23;;;19.10;;
11837;SDS011;5978;51.020;6.764;2022-07-23T00:16:08;25.80;;;19.40;;
11837;SDS011;5978;51.020;6.764;2022-07-23T00:18:34;25.63;;;21.50;;
11837;SDS011;5978;51.020;6.764;2022-07-23T00:20:59;27.30;;;19.70;;
11837;SDS011;5978;51.020;6.764;2022-07-23T00:23:25;28.13;;;21.07;;
11837;SDS011;5978;51.020;6.764;2022-07-23T00:25:52;26.17;;;20.00;;
11837;SDS011;5978;51.020;6.764;2022-07-23T00:28:18;31.33;;;20.87;;
11837;SDS011;5978;51.020;6.764;2022-07-23T00:30:43;27.33;;;22.00;;
11837;SDS011;5978;51.020;6.764;2022-07-23T00:33:10;39.43;;;22.03;;
11837;SDS011;5978;51.020;6.764;2022-07-23T00:35:37;24.70;;;20.00;;
11837;SDS011;5978;51.020;6.764;2022-07-23T00:38:05;41.93;;;24.53;;
11837;SDS011;5978;51.020;6.764;2022-07-23T00:40:32;32.33;;;21.23;;
11837;SDS011;5978;51.020;6.764;2022-07-23T00:42:58;34.37;;;24.50;;
11837;SDS011;5978;51.020;6.764;2022-07-23T00:45:24;31.57;;;22.67;;
11837;SDS011;5978;51.020;6.764;2022-07-23T00:47:51;37.97;;;23.70;;
11837;SDS011;5978;51.020;6.764;2022-07-23T00:50:16;37.83;;;25.47;;
11837;SDS011;5978;51.020;6.764;2022-07-23T00:52:42;31.40;;;21.10;;
11837;SDS011;5978;51.020;6.764;2022-07-23T00:55:09;30.80;;;21.23;;
11837;SDS011;5978;51.020;6.764;2022-07-23T00:57:37;35.60;;;24.00;;
11837;SDS011;5978;51.020;6.764;2022-07-23T01:00:06;35.10;;;24.37;;
11837;SDS011;5978;51.020;6.764;2022-07-23T01:02:35;32.97;;;23.57;;
11837;SDS011;5978;51.020;6.764;2022-07-23T01:05:00;34.80;;;22.60;;
11837;SDS011;5978;51.020;6.764;2022-07-23T01:07:26;40.13;;;26.50;;
11837;SDS011;5978;51.020;6.764;2022-07-23T01:09:53;29.80;;;22.50;;
11837;SDS011;5978;51.020;6.764;2022-07-23T01:12:20;33.37;;;24.13;;
11837;SDS011;5978;51.020;6.764;2022-07-23T01:14:53;35.47;;;23.80;;
11837;SDS011;5978;51.020;6.764;2022-07-23T01:17:22;36.40;;;25.03;;
11837;SDS011;5978;51.020;6.764;2022-07-23T01:19:48;37.57;;;24.57;;
11837;SDS011;5978;51.020;6.764;2022-07-23T01:22:14;31.47;;;22.60;;
11837;SDS011;5978;51.020;6.764;2022-07-23T01:24:42;37.37;;;24.47;;
11837;SDS011;5978;51.020;6.764;2022-07-23T01:27:08;34.93;;;24.10;;
11837;SDS011;5978;51.020;6.764;2022-07-23T01:29:33;34.07;;;23.87;;
11837;SDS011;5978;51.020;6.764;2022-07-23T01:31:59;28.83;;;22.63;;
11837;SDS011;5978;51.020;6.764;2022-07-23T01:34:25;28.23;;;21.33;;
11837;SDS011;5978;51.020;6.764;2022-07-23T01:36:50;35.83;;;22.90;;
11837;SDS011;5978;51.020;6.764;2022-07-23T01:39:16;28.77;;;22.33;;
11837;SDS011;5978;51.020;6.764;2022-07-23T01:41:42;30.73;;;22.80;;
11837;SDS011;5978;51.020;6.764;2022-07-23T01:44:07;35.80;;;23.50;;
11837;SDS011;5978;51.020;6.764;2022-07-23T01:46:33;36.77;;;23.67;;
11837;SDS011;5978;51.020;6.764;2022-07-23T01:48:59;32.03;;;22.03;;
11837;SDS011;5978;51.020;6.764;2022-07-23T01:51:25;35.00;;;23.57;;
11837;SDS011;5978;51.020;6.764;2022-07-23T01:53:51;31.93;;;22.87;;
11837;SDS011;5978;51.020;6.764;2022-07-23T01:56:16;36.27;;;21.70;;
11837;SDS011;5978;51.020;6.764;2022-07-23T01:58:43;32.70;;;21.57;;
11837;SDS011;5978;51.020;6.764;2022-07-23T02:01:09;33.17;;;24.50;;
11837;SDS011;5978;51.020;6.764;2022-07-23T02:03:35;37.37;;;24.50;;
11837;SDS011;5978;51.020;6.764;2022-07-23T02:06:00;31.37;;;23.87;;
11837;SDS011;5978;51.020;6.764;2022-07-23T02:08:26;33.77;;;22.27;;
11837;SDS011;5978;51.020;6.764;2022-07-23T02:10:51;31.33;;;23.37;;
11837;SDS011;5978;51.020;6.764;2022-07-23T02:13:18;40.47;;;25.10;;
11837;SDS011;5978;51.020;6.764;2022-07-23T02:15:44;32.73;;;25.00;;
11837;SDS011;5978;51.020;6.764;2022-07-23T02:18:11;35.43;;;25.20;;
11837;SDS011;5978;51.020;6.764;2022-07-23T02:20:36;36.60;;;25.10;;
11837;SDS011;5978;51.020;6.764;2022-07-23T02:23:03;38.87;;;25.80;;
11837;SDS011;5978;51.020;6.764;2022-07-23T02:25:29;35.50;;;24.80;;
11837;SDS011;5978;51.020;6.764;2022-07-23T02:27:55;33.70;;;23.70;;
11837;SDS011;5978;51.020;6.764;2022-07-23T02:30:20;35.47;;;24.73;;
11837;SDS011;5978;51.020;6.764;2022-07-23T02:32:46;38.77;;;26.10;;
11837;SDS011;5978;51.020;6.764;2022-07-23T02:35:12;35.57;;;26.33;;
11837;SDS011;5978;51.020;6.764;2022-07-23T02:37:38;29.43;;;22.60;;
11837;SDS011;5978;51.020;6.764;2022-07-23T02:40:04;35.13;;;23.87;;
11837;SDS011;5978;51.020;6.764;2022-07-23T02:42:30;36.90;;;24.70;;
11837;SDS011;5978;51.020;6.764;2022-07-23T02:44:55;38.13;;;26.60;;
11837;SDS011;5978;51.020;6.764;2022-07-23T02:47:21;37.20;;;24.80;;
11837;SDS011;5978;51.020;6.764;2022-07-23T02:49:46;39.27;;;25.50;;
11837;SDS011;5978;51.020;6.764;2022-07-23T02:52:12;35.93;;;23.90;;
11837;SDS011;5978;51.020;6.764;2022-07-23T02:54:38;37.40;;;25.23;;
11837;SDS011;5978;51.020;6.764;2022-07-23T02:57:03;35.90;;;26.20;;
11837;SDS011;5978;51.020;6.764;2022-07-23T02:59:30;35.63;;;24.73;;
11837;SDS011;5978;51.020;6.764;2022-07-23T03:01:55;36.70;;;25.27;;
11837;SDS011;5978;51.020;6.764;2022-07-23T03:04:21;34.60;;;25.60;;
11837;SDS011;5978;51.020;6.764;2022-07-23T03:06:46;33.33;;;23.30;;
11837;SDS011;5978;51.020;6.764;2022-07-23T03:09:12;34.70;;;23.50;;
11837;SDS011;5978;51.020;6.764;2022-07-23T03:11:38;29.57;;;21.00;;
11837;SDS011;5978;51.020;6.764;2022-07-23T03:14:03;42.83;;;23.57;;
11837;SDS011;5978;51.020;6.764;2022-07-23T03:16:29;34.87;;;24.43;;
11837;SDS011;5978;51.020;6.764;2022-07-23T03:18:54;37.57;;;22.70;;
11837;SDS011;5978;51.020;6.764;2022-07-23T03:21:20;35.77;;;24.03;;
11837;SDS011;5978;51.020;6.764;2022-07-23T03:23:46;36.57;;;24.90;;
11837;SDS011;5978;51.020;6.764;2022-07-23T03:26:11;34.10;;;22.77;;
11837;SDS011;5978;51.020;6.764;2022-07-23T03:28:37;37.13;;;24.80;;
11837;SDS011;5978;51.020;6.764;2022-07-23T03:31:03;34.77;;;24.23;;
11837;SDS011;5978;51.020;6.764;2022-07-23T03:33:28;42.17;;;23.80;;
11837;SDS011;5978;51.020;6.764;2022-07-23T03:35:54;37.63;;;23.50;;
11837;SDS011;5978;51.020;6.764;2022-07-23T03:38:19;40.27;;;26.10;;
11837;SDS011;5978;51.020;6.764;2022-07-23T03:40:45;43.40;;;27.33;;
11837;SDS011;5978;51.020;6.764;2022-07-23T03:43:11;42.80;;;26.60;;
11837;SDS011;5978;51.020;6.764;2022-07-23T03:45:36;35.57;;;24.37;;
11837;SDS011;5978;51.020;6.764;2022-07-23T03:48:02;32.77;;;23.00;;
11837;SDS011;5978;51.020;6.764;2022-07-23T03:50:28;42.77;;;25.20;;
11837;SDS011;5978;51.020;6.764;2022-07-23T03:52:53;33.63;;;23.70;;
11837;SDS011;5978;51.020;6.764;2022-07-23T03:55:19;37.03;;;23.53;;
11837;SDS011;5978;51.020;6.764;2022-07-23T03:57:45;30.27;;;22.77;;
11837;SDS011;5978;51.020;6.764;2022-07-23T04:00:11;34.80;;;22.80;;
11837;SDS011;5978;51.020;6.764;2022-07-23T04:02:38;32.03;;;22.43;;
11837;SDS011;5978;51.020;6.764;2022-07-23T04:05:05;31.90;;;21.50;;
11837;SDS011;5978;51.020;6.764;2022-07-23T04:07:31;39.00;;;24.40;;
11837;SDS011;5978;51.020;6.764;2022-07-23T04:09:57;33.23;;;21.60;;
11837;SDS011;5978;51.020;6.764;2022-07-23T04:12:23;31.27;;;20.00;;
11837;SDS011;5978;51.020;6.764;2022-07-23T04:14:49;27.47;;;20.93;;
11837;SDS011;5978;51.020;6.764;2022-07-23T04:17:14;30.23;;;20.33;;
11837;SDS011;5978;51.020;6.764;2022-07-23T04:19:40;27.33;;;19.37;;
11837;SDS011;5978;51.020;6.764;2022-07-23T04:22:08;34.33;;;20.17;;
11837;SDS011;5978;51.020;6.764;2022-07-23T04:24:34;28.20;;;19.97;;
11837;SDS011;5978;51.020;6.764;2022-07-23T04:27:00;29.20;;;21.03;;
11837;SDS011;5978;51.020;6.764;2022-07-23T04:29:26;26.93;;;19.73;;
11837;SDS011;5978;51.020;6.764;2022-07-23T04:31:52;24.27;;;19.57;;
11837;SDS011;5978;51.020;6.764;2022-07-23T04:34:17;27.13;;;20.30;;
11837;SDS011;5978;51.020;6.764;2022-07-23T04:36:43;26.90;;;19.13;;
11837;SDS011;5978;51.020;6.764;2022-07-23T04:39:09;29.23;;;20.63;;
11837;SDS011;5978;51.020;6.764;2022-07-23T04:41:35;26.37;;;19.53;;
11837;SDS011;5978;51.020;6.764;2022-07-23T04:44:01;27.67;;;20.30;;
11837;SDS011;5978;51.020;6.764;2022-07-23T04:46:26;29.87;;;21.10;;
11837;SDS011;5978;51.020;6.764;2022-07-23T04:48:53;31.47;;;21.70;;
11837;SDS011;5978;51.020;6.764;2022-07-23T04:51:18;29.97;;;20.33;;
11837;SDS011;5978;51.020;6.764;2022-07-23T04:53:44;30.63;;;20.70;;
11837;SDS011;5978;51.020;6.764;2022-07-23T04:56:10;22.90;;;18.63;;
11837;SDS011;5978;51.020;6.764;2022-07-23T04:58:35;31.27;;;20.10;;
11837;SDS011;5978;51.020;6.764;2022-07-23T05:01:01;33.83;;;22.40;;
11837;SDS011;5978;51.020;6.764;2022-07-23T05:03:27;26.97;;;20.60;;
11837;SDS011;5978;51.020;6.764;2022-07-23T05:05:53;30.67;;;22.57;;
11837;SDS011;5978;51.020;6.764;2022-07-23T05:08:18;29.63;;;21.70;;
11837;SDS011;5978;51.020;6.764;2022-07-23T05:10:44;27.17;;;19.57;;
11837;SDS011;5978;51.020;6.764;2022-07-23T05:13:10;28.13;;;21.20;;
11837;SDS011;5978;51.020;6.764;2022-07-23T05:15:36;26.30;;;21.20;;
11837;SDS011;5978;51.020;6.764;2022-07-23T05:18:01;27.10;;;19.37;;
11837;SDS011;5978;51.020;6.764;2022-07-23T05:20:27;28.00;;;21.47;;
11837;SDS011;5978;51.020;6.764;2022-07-23T05:22:53;28.67;;;21.07;;
11837;SDS011;5978;51.020;6.764;2022-07-23T05:25:18;30.00;;;20.17;;
11837;SDS011;5978;51.020;6.764;2022-07-23T05:27:44;27.10;;;20.37;;
11837;SDS011;5978;51.020;6.764;2022-07-23T05:30:10;27.10;;;21.20;;
11837;SDS011;5978;51.020;6.764;2022-07-23T05:32:36;29.00;;;22.03;;
11837;SDS011;5978;51.020;6.764;2022-07-23T05:35:02;27.43;;;18.10;;
11837;SDS011;5978;51.020;6.764;2022-07-23T05:37:28;26.43;;;18.40;;
11837;SDS011;5978;51.020;6.764;2022-07-23T05:39:54;23.20;;;18.43;;
11837;SDS011;5978;51.020;6.764;2022-07-23T05:42:20;24.30;;;19.73;;
11837;SDS011;5978;51.020;6.764;2022-07-23T05:44:45;25.60;;;18.20;;
11837;SDS011;5978;51.020;6.764;2022-07-23T05:47:11;26.10;;;19.10;;
11837;SDS011;5978;51.020;6.764;2022-07-23T05:49:37;25.53;;;17.43;;
11837;SDS011;5978;51.020;6.764;2022-07-23T05:52:06;25.43;;;17.90;;
11837;SDS011;5978;51.020;6.764;2022-07-23T05:54:34;26.50;;;19.13;;
11837;SDS011;5978;51.020;6.764;2022-07-23T05:57:00;27.30;;;19.27;;
11837;SDS011;5978;51.020;6.764;2022-07-23T05:59:26;21.03;;;18.07;;
11837;SDS011;5978;51.020;6.764;2022-07-23T06:01:52;28.60;;;18.10;;
11837;SDS011;5978;51.020;6.764;2022-07-23T06:04:17;27.50;;;19.80;;
11837;SDS011;5978;51.020;6.764;2022-07-23T06:06:43;32.07;;;18.77;;
11837;SDS011;5978;51.020;6.764;2022-07-23T06:09:09;27.10;;;18.73;;
11837;SDS011;5978;51.020;6.764;2022-07-23T06:11:35;23.07;;;19.10;;
11837;SDS011;5978;51.020;6.764;2022-07-23T06:14:01;27.10;;;20.30;;
11837;SDS011;5978;51.020;6.764;2022-07-23T06:16:27;27.50;;;18.13;;
11837;SDS011;5978;51.020;6.764;2022-07-23T06:18:53;25.43;;;18.60;;
11837;SDS011;5978;51.020;6.764;2022-07-23T06:21:19;28.20;;;20.60;;
11837;SDS011;5978;51.020;6.764;2022-07-23T06:23:45;26.93;;;17.17;;
11837;SDS011;5978;51.020;6.764;2022-07-23T06:26:10;25.00;;;17.60;;
11837;SDS011;5978;51.020;6.764;2022-07-23T06:28:36;27.03;;;18.00;;
11837;SDS011;5978;51.020;6.764;2022-07-23T06:31:02;30.10;;;19.43;;
11837;SDS011;5978;51.020;6.764;2022-07-23T06:33:27;31.60;;;20.30;;
11837;SDS011;5978;51.020;6.764;2022-07-23T06:35:53;27.50;;;20.37;;
11837;SDS011;5978;51.020;6.764;2022-07-23T06:38:18;24.17;;;18.20;;
11837;SDS011;5978;51.020;6.764;2022-07-23T06:40:44;26.80;;;18.50;;
11837;SDS011;5978;51.020;6.764;2022-07-23T06:43:10;23.20;;;19.10;;
11837;SDS011;5978;51.020;6.764;2022-07-23T06:45:36;27.57;;;18.60;;
11837;SDS011;5978;51.020;6.764;2022-07-23T06:48:01;27.30;;;19.20;;
11837;SDS011;5978;51.020;6.764;2022-07-23T06:50:28;23.23;;;17.50;;
11837;SDS011;5978;51.020;6.764;2022-07-23T06:52:54;27.17;;;18.40;;
11837;SDS011;5978;51.020;6.764;2022-07-23T06:55:19;23.43;;;17.80;;
11837;SDS011;5978;51.020;6.764;2022-07-23T06:57:45;21.40;;;17.43;;
11837;SDS011;5978;51.020;6.764;2022-07-23T07:00:11;21.40;;;17.73;;
11837;SDS011;5978;51.020;6.764;2022-07-23T07:02:37;19.57;;;16.70;;
11837;SDS011;5978;51.020;6.764;2022-07-23T07:05:02;24.83;;;16.20;;
11837;SDS011;5978;51.020;6.764;2022-07-23T07:07:28;18.10;;;16.07;;
11837;SDS011;5978;51.020;6.764;2022-07-23T07:09:54;27.23;;;18.47;;
11837;SDS011;5978;51.020;6.764;2022-07-23T07:12:19;22.17;;;16.43;;
11837;SDS011;5978;51.020;6.764;2022-07-23T07:14:45;22.33;;;16.17;;
11837;SDS011;5978;51.020;6.764;2022-07-23T07:17:11;20.20;;;17.80;;
11837;SDS011;5978;51.020;6.764;2022-07-23T07:19:36;19.93;;;14.87;;
11837;SDS011;5978;51.020;6.764;2022-07-23T07:22:02;22.93;;;16.67;;
11837;SDS011;5978;51.020;6.764;2022-07-23T07:24:28;19.70;;;14.10;;
11837;SDS011;5978;51.020;6.764;2022-07-23T07:26:53;18.23;;;14.63;;
11837;SDS011;5978;51.020;6.764;2022-07-23T07:29:19;19.17;;;15.83;;
11837;SDS011;5978;51.020;6.764;2022-07-23T07:31:44;21.03;;;15.20;;
11837;SDS011;5978;51.020;6.764;2022-07-23T07:34:10;24.30;;;17.50;;
11837;SDS011;5978;51.020;6.764;2022-07-23T07:36:36;23.77;;;17.40;;
11837;SDS011;5978;51.020;6.764;2022-07-23T07:39:02;28.00;;;19.07;;
11837;SDS011;5978;51.020;6.764;2022-07-23T07:41:29;28.17;;;18.43;;
11837;SDS011;5978;51.020;6.764;2022-07-23T07:43:56;30.77;;;19.40;;
11837;SDS011;5978;51.020;6.764;2022-07-23T07:46:21;25.53;;;17.67;;
11837;SDS011;5978;51.020;6.764;2022-07-23T07:48:49;27.67;;;20.50;;
11837;SDS011;5978;51.020;6.764;2022-07-23T07:51:15;25.47;;;19.50;;
11837;SDS011;5978;51.020;6.764;2022-07-23T07:53:41;29.63;;;22.20;;
11837;SDS011;5978;51.020;6.764;2022-07-23T07:56:06;33.97;;;21.03;;
11837;SDS011;5978;51.020;6.764;2022-07-23T07:58:32;30.97;;;19.97;;
11837;SDS011;5978;51.020;6.764;2022-07-23T08:00:58;29.10;;;21.60;;
11837;SDS011;5978;51.020;6.764;2022-07-23T08:03:23;28.00;;;19.90;;
11837;SDS011;5978;51.020;6.764;2022-07-23T08:05:49;26.93;;;20.40;;
11837;SDS011;5978;51.020;6.764;2022-07-23T08:08:15;28.50;;;20.27;;
11837;SDS011;5978;51.020;6.764;2022-07-23T08:10:40;33.77;;;20.73;;
11837;SDS011;5978;51.020;6.764;2022-07-23T08:13:06;32.57;;;19.70;;
11837;SDS011;5978;51.020;6.764;2022-07-23T08:15:32;22.67;;;17.37;;
11837;SDS011;5978;51.020;6.764;2022-07-23T08:17:58;26.40;;;18.50;;
11837;SDS011;5978;51.020;6.764;2022-07-23T08:20:24;21.20;;;18.23;;
11837;SDS011;5978;51.020;6.764;2022-07-23T08:22:54;20.50;;;16.97;;
11837;SDS011;5978;51.020;6.764;2022-07-23T08:25:22;23.77;;;19.00;;
11837;SDS011;5978;51.020;6.764;2022-07-23T08:27:50;26.07;;;19.37;;
11837;SDS011;5978;51.020;6.764;2022-07-23T08:30:16;20.37;;;17.33;;
11837;SDS011;5978;51.020;6.764;2022-07-23T08:35:24;20.60;;;16.33;;
11837;SDS011;5978;51.020;6.764;2022-07-23T08:37:52;25.13;;;17.67;;
11837;SDS011;5978;51.020;6.764;2022-07-23T08:40:18;23.70;;;15.10;;
11837;SDS011;5978;51.020;6.764;2022-07-23T08:42:46;14.03;;;12.10;;
11837;SDS011;5978;51.020;6.764;2022-07-23T08:45:13;20.17;;;14.33;;
11837;SDS011;5978;51.020;6.764;2022-07-23T08:47:41;18.77;;;15.17;;
11837;SDS011;5978;51.020;6.764;2022-07-23T08:50:08;20.13;;;16.63;;
11837;SDS011;5978;51.020;6.764;2022-07-23T08:52:36;17.90;;;16.03;;
11837;SDS011;5978;51.020;6.764;2022-07-23T08:55:03;24.47;;;15.50;;
11837;SDS011;5978;51.020;6.764;2022-07-23T08:57:29;16.93;;;14.93;;
11837;SDS011;5978;51.020;6.764;2022-07-23T08:59:56;16.77;;;14.00;;
11837;SDS011;5978;51.020;6.764;2022-07-23T09:02:21;18.10;;;16.10;;
11837;SDS011;5978;51.020;6.764;2022-07-23T09:04:47;20.17;;;15.97;;
11837;SDS011;5978;51.020;6.764;2022-07-23T09:07:13;17.97;;;16.00;;
11837;SDS011;5978;51.020;6.764;2022-07-23T09:09:38;17.27;;;15.57;;
11837;SDS011;5978;51.020;6.764;2022-07-23T09:12:05;16.63;;;14.93;;
11837;SDS011;5978;51.020;6.764;2022-07-23T09:14:36;20.77;;;15.57;;
11837;SDS011;5978;51.020;6.764;2022-07-23T09:17:14;15.87;;;13.67;;
11837;SDS011;5978;51.020;6.764;2022-07-23T09:19:41;19.80;;;15.90;;
11837;SDS011;5978;51.020;6.764;2022-07-23T09:22:18;19.70;;;14.50;;
11837;SDS011;5978;51.020;6.764;2022-07-23T09:25:04;18.50;;;15.20;;
11837;SDS011;5978;51.020;6.764;2022-07-23T09:27:48;17.43;;;15.63;;
11837;SDS011;5978;51.020;6.764;2022-07-23T09:30:26;21.13;;;15.83;;
11837;SDS011;5978;51.020;6.764;2022-07-23T09:38:18;13.60;;;12.03;;
11837;SDS011;5978;51.020;6.764;2022-07-23T09:40:45;15.73;;;11.93;;
11837;SDS011;5978;51.020;6.764;2022-07-23T09:43:12;12.53;;;11.10;;
11837;SDS011;5978;51.020;6.764;2022-07-23T09:45:52;12.77;;;10.93;;
11837;SDS011;5978;51.020;6.764;2022-07-23T09:48:17;13.13;;;11.67;;
11837;SDS011;5978;51.020;6.764;2022-07-23T09:50:43;15.80;;;14.20;;
11837;SDS011;5978;51.020;6.764;2022-07-23T09:53:10;15.70;;;14.10;;
11837;SDS011;5978;51.020;6.764;2022-07-23T09:55:51;14.20;;;12.67;;
11837;SDS011;5978;51.020;6.764;2022-07-23T09:58:23;15.00;;;11.13;;
11837;SDS011;5978;51.020;6.764;2022-07-23T10:00:51;12.67;;;11.43;;
11837;SDS011;5978;51.020;6.764;2022-07-23T10:03:18;17.50;;;11.30;;
11837;SDS011;5978;51.020;6.764;2022-07-23T10:05:45;13.17;;;11.63;;
11837;SDS011;5978;51.020;6.764;2022-07-23T10:08:13;13.43;;;12.10;;
11837;SDS011;5978;51.020;6.764;2022-07-23T10:10:39;12.97;;;11.67;;
11837;SDS011;5978;51.020;6.764;2022-07-23T10:13:05;12.80;;;11.13;;
11837;SDS011;5978;51.020;6.764;2022-07-23T10:15:53;11.27;;;10.17;;
11837;SDS011;5978;51.020;6.764;2022-07-23T10:18:19;10.93;;;9.93;;
11837;SDS011;5978;51.020;6.764;2022-07-23T10:20:46;10.53;;;9.43;;
11837;SDS011;5978;51.020;6.764;2022-07-23T10:23:22;13.67;;;10.80;;
11837;SDS011;5978;51.020;6.764;2022-07-23T10:26:05;10.60;;;9.60;;
11837;SDS011;5978;51.020;6.764;2022-07-23T10:34:55;12.10;;;10.90;;
11837;SDS011;5978;51.020;6.764;2022-07-23T10:37:32;13.53;;;10.70;;
11837;SDS011;5978;51.020;6.764;2022-07-23T10:40:13;11.30;;;10.10;;
11837;SDS011;5978;51.020;6.764;2022-07-23T10:42:42;12.90;;;8.60;;
11837;SDS011;5978;51.020;6.764;2022-07-23T10:45:27;11.07;;;9.90;;
11837;SDS011;5978;51.020;6.764;2022-07-23T10:48:17;10.33;;;8.63;;
11837;SDS011;5978;51.020;6.764;2022-07-23T10:51:12;8.23;;;7.27;;
11837;SDS011;5978;51.020;6.764;2022-07-23T10:56:17;11.17;;;9.50;;
11837;SDS011;5978;51.020;6.764;2022-07-23T10:59:23;8.30;;;7.50;;
11837;SDS011;5978;51.020;6.764;2022-07-23T11:01:49;9.03;;;6.57;;
11837;SDS011;5978;51.020;6.764;2022-07-23T11:04:15;10.50;;;8.13;;
11837;SDS011;5978;51.020;6.764;2022-07-23T11:12:36;5.77;;;5.17;;
11837;SDS011;5978;51.020;6.764;2022-07-23T11:17:34;6.23;;;5.30;;
11837;SDS011;5978;51.020;6.764;2022-07-23T11:25:13;5.17;;;4.73;;
11837;SDS011;5978;51.020;6.764;2022-07-23T11:27:55;4.93;;;4.30;;
11837;SDS011;5978;51.020;6.764;2022-07-23T11:30:38;4.70;;;4.30;;
11837;SDS011;5978;51.020;6.764;2022-07-23T11:35:40;4.57;;;4.17;;
11837;SDS011;5978;51.020;6.764;2022-07-23T11:38:14;5.30;;;3.80;;
11837;SDS011;5978;51.020;6.764;2022-07-23T11:40:51;6.50;;;4.57;;
11837;SDS011;5978;51.020;6.764;2022-07-23T11:43:19;3.53;;;3.23;;
11837;SDS011;5978;51.020;6.764;2022-07-23T11:45:47;5.30;;;4.80;;
11837;SDS011;5978;51.020;6.764;2022-07-23T11:48:22;5.80;;;4.63;;
11837;SDS011;5978;51.020;6.764;2022-07-23T11:50:49;4.30;;;3.40;;
11837;SDS011;5978;51.020;6.764;2022-07-23T11:53:25;3.80;;;3.50;;
11837;SDS011;5978;51.020;6.764;2022-07-23T11:56:05;5.03;;;3.57;;
11837;SDS011;5978;51.020;6.764;2022-07-23T11:58:36;4.60;;;3.60;;
11837;SDS011;5978;51.020;6.764;2022-07-23T12:01:03;3.33;;;3.03;;
11837;SDS011;5978;51.020;6.764;2022-07-23T12:03:29;2.83;;;2.63;;
11837;SDS011;5978;51.020;6.764;2022-07-23T12:05:58;2.87;;;2.57;;
11837;SDS011;5978;51.020;6.764;2022-07-23T12:08:25;3.50;;;3.20;;
11837;SDS011;5978;51.020;6.764;2022-07-23T12:10:51;2.97;;;2.77;;
11837;SDS011;5978;51.020;6.764;2022-07-23T12:13:18;3.60;;;3.07;;
11837;SDS011;5978;51.020;6.764;2022-07-23T12:15:46;5.50;;;3.60;;
11837;SDS011;5978;51.020;6.764;2022-07-23T12:18:15;7.57;;;3.27;;
11837;SDS011;5978;51.020;6.764;2022-07-23T12:20:43;8.53;;;3.00;;
11837;SDS011;5978;51.020;6.764;2022-07-23T12:23:11;3.40;;;3.10;;
11837;SDS011;5978;51.020;6.764;2022-07-23T12:25:39;3.57;;;2.63;;
11837;SDS011;5978;51.020;6.764;2022-07-23T12:28:09;3.10;;;2.77;;
11837;SDS011;5978;51.020;6.764;2022-07-23T12:33:09;2.93;;;2.73;;
11837;SDS011;5978;51.020;6.764;2022-07-23T12:35:38;3.50;;;2.60;;
11837;SDS011;5978;51.020;6.764;2022-07-23T12:38:10;3.30;;;3.07;;
11837;SDS011;5978;51.020;6.764;2022-07-23T12:40:41;9.10;;;2.83;;
11837;SDS011;5978;51.020;6.764;2022-07-23T12:43:21;3.13;;;2.83;;
11837;SDS011;5978;51.020;6.764;2022-07-23T12:46:04;8.03;;;3.13;;
11837;SDS011;5978;51.020;6.764;2022-07-23T12:48:30;3.80;;;3.27;;
11837;SDS011;5978;51.020;6.764;2022-07-23T12:53:36;3.87;;;3.13;;
11837;SDS011;5978;51.020;6.764;2022-07-23T12:56:06;5.23;;;3.03;;
11837;SDS011;5978;51.020;6.764;2022-07-23T12:58:53;4.23;;;3.87;;
11837;SDS011;5978;51.020;6.764;2022-07-23T13:04:07;4.43;;;2.73;;
11837;SDS011;5978;51.020;6.764;2022-07-23T13:06:41;4.03;;;3.73;;
11837;SDS011;5978;51.020;6.764;2022-07-23T13:09:10;2.80;;;2.60;;
11837;SDS011;5978;51.020;6.764;2022-07-23T13:11:40;3.40;;;3.10;;
11837;SDS011;5978;51.020;6.764;2022-07-23T13:14:06;3.57;;;3.17;;
11837;SDS011;5978;51.020;6.764;2022-07-23T13:16:32;6.93;;;2.90;;
11837;SDS011;5978;51.020;6.764;2022-07-23T13:18:58;5.50;;;4.13;;
11837;SDS011;5978;51.020;6.764;2022-07-23T13:21:25;3.47;;;3.17;;
11837;SDS011;5978;51.020;6.764;2022-07-23T13:23:51;3.53;;;3.23;;
11837;SDS011;5978;51.020;6.764;2022-07-23T13:26:17;4.77;;;4.30;;
11837;SDS011;5978;51.020;6.764;2022-07-23T13:28:43;4.23;;;3.20;;
11837;SDS011;5978;51.020;6.764;2022-07-23T13:31:09;9.23;;;3.13;;
11837;SDS011;5978;51.020;6.764;2022-07-23T13:33:34;3.83;;;3.40;;
11837;SDS011;5978;51.020;6.764;2022-07-23T13:36:00;3.17;;;2.93;;
11837;SDS011;5978;51.020;6.764;2022-07-23T13:38:26;3.30;;;2.80;;
11837;SDS011;5978;51.020;6.764;2022-07-23T13:40:52;3.77;;;3.03;;
11837;SDS011;5978;51.020;6.764;2022-07-23T13:43:19;3.47;;;3.17;;
11837;SDS011;5978;51.020;6.764;2022-07-23T13:45:46;3.23;;;2.60;;
11837;SDS011;5978;51.020;6.764;2022-07-23T13:48:13;5.10;;;2.70;;
11837;SDS011;5978;51.020;6.764;2022-07-23T13:50:39;5.90;;;2.93;;
11837;SDS011;5978;51.020;6.764;2022-07-23T13:53:06;3.43;;;3.13;;
11837;SDS011;5978;51.020;6.764;2022-07-23T13:55:34;6.67;;;2.83;;
11837;SDS011;5978;51.020;6.764;2022-07-23T13:58:01;3.70;;;2.90;;
11837;SDS011;5978;51.020;6.764;2022-07-23T14:00:27;3.10;;;2.80;;
11837;SDS011;5978;51.020;6.764;2022-07-23T14:02:53;5.10;;;3.20;;
11837;SDS011;5978;51.020;6.764;2022-07-23T14:05:19;3.20;;;2.90;;
11837;SDS011;5978;51.020;6.764;2022-07-23T14:07:45;4.10;;;3.03;;
11837;SDS011;5978;51.020;6.764;2022-07-23T14:10:12;3.30;;;3.00;;
11837;SDS011;5978;51.020;6.764;2022-07-23T14:12:38;2.97;;;2.77;;
11837;SDS011;5978;51.020;6.764;2022-07-23T14:15:05;5.23;;;3.10;;
11837;SDS011;5978;51.020;6.764;2022-07-23T14:17:33;2.87;;;2.67;;
11837;SDS011;5978;51.020;6.764;2022-07-23T14:19:59;5.00;;;3.63;;
11837;SDS011;5978;51.020;6.764;2022-07-23T14:22:25;2.80;;;2.60;;
11837;SDS011;5978;51.020;6.764;2022-07-23T14:24:50;3.13;;;2.23;;
11837;SDS011;5978;51.020;6.764;2022-07-23T14:27:16;3.63;;;3.30;;
11837;SDS011;5978;51.020;6.764;2022-07-23T14:29:42;2.40;;;2.30;;
11837;SDS011;5978;51.020;6.764;2022-07-23T14:32:08;4.73;;;2.57;;
11837;SDS011;5978;51.020;6.764;2022-07-23T14:34:34;3.10;;;2.20;;
11837;SDS011;5978;51.020;6.764;2022-07-23T14:37:00;2.67;;;2.47;;
11837;SDS011;5978;51.020;6.764;2022-07-23T14:39:26;2.90;;;2.47;;
11837;SDS011;5978;51.020;6.764;2022-07-23T14:41:52;2.70;;;2.50;;
11837;SDS011;5978;51.020;6.764;2022-07-23T14:44:17;2.70;;;2.50;;
11837;SDS011;5978;51.020;6.764;2022-07-23T14:46:43;5.00;;;2.67;;
11837;SDS011;5978;51.020;6.764;2022-07-23T14:49:09;2.47;;;2.20;;
11837;SDS011;5978;51.020;6.764;2022-07-23T14:51:35;2.93;;;2.73;;
11837;SDS011;5978;51.020;6.764;2022-07-23T14:54:01;3.33;;;2.40;;
11837;SDS011;5978;51.020;6.764;2022-07-23T14:56:28;4.40;;;2.57;;
11837;SDS011;5978;51.020;6.764;2022-07-23T14:58:53;4.27;;;2.80;;
11837;SDS011;5978;51.020;6.764;2022-07-23T15:01:21;3.17;;;2.87;;
11837;SDS011;5978;51.020;6.764;2022-07-23T15:03:47;4.63;;;2.40;;
11837;SDS011;5978;51.020;6.764;2022-07-23T15:06:13;2.90;;;2.70;;
11837;SDS011;5978;51.020;6.764;2022-07-23T15:08:40;3.00;;;2.80;;
11837;SDS011;5978;51.020;6.764;2022-07-23T15:11:06;3.00;;;2.80;;
11837;SDS011;5978;51.020;6.764;2022-07-23T15:13:34;4.30;;;3.23;;
11837;SDS011;5978;51.020;6.764;2022-07-23T15:16:00;6.43;;;3.60;;
11837;SDS011;5978;51.020;6.764;2022-07-23T15:18:26;3.30;;;3.10;;
11837;SDS011;5978;51.020;6.764;2022-07-23T15:20:52;4.37;;;3.50;;
11837;SDS011;5978;51.020;6.764;2022-07-23T15:23:17;2.60;;;2.40;;
11837;SDS011;5978;51.020;6.764;2022-07-23T15:25:43;4.70;;;3.17;;